createdAt,value
2023-05-09T00:01:27.681Z,93956.47
2023-05-09T00:03:54.613Z,93961.97
2023-05-09T00:06:21.727Z,93963.09
2023-05-09T00:11:17.008Z,93950.38
2023-05-09T00:13:44.391Z,93949.06
2023-05-09T00:16:11.358Z,93960.19
2023-05-09T00:18:38.279Z,93958.06
2023-05-09T00:21:05.262Z,93952.13
2023-05-09T00:23:32.111Z,93951.94
2023-05-09T00:25:59.271Z,93944.91
2023-05-09T00:28:27.583Z,93945.69
2023-05-09T00:30:54.378Z,93939.25
2023-05-09T00:33:21.342Z,93937.94
2023-05-09T00:35:48.695Z,93943.09
2023-05-09T00:38:15.666Z,93941.34
2023-05-09T00:40:42.581Z,93938.41
2023-05-09T00:43:09.463Z,93932.59
2023-05-09T00:45:37.744Z,93935.34
2023-05-09T00:48:05.222Z,93940.00
2023-05-09T00:50:32.267Z,93944.00
2023-05-09T00:52:59.520Z,93947.22
2023-05-09T00:55:27.316Z,93947.22
2023-05-09T00:58:12.691Z,93940.59
2023-05-09T01:00:41.763Z,93942.84
2023-05-09T01:03:09.225Z,93939.09
2023-05-09T01:05:42.845Z,93942.50
2023-05-09T01:08:15.129Z,93947.97
2023-05-09T01:10:45.780Z,93951.19
2023-05-09T01:13:18.371Z,93952.97
2023-05-09T01:15:52.593Z,93944.88
2023-05-09T01:18:29.904Z,93944.56
2023-05-09T01:21:01.906Z,93948.00
2023-05-09T01:23:51.260Z,93943.97
2023-05-09T01:26:22.148Z,93941.41
2023-05-09T01:29:10.980Z,93948.84
2023-05-09T01:31:40.418Z,93945.81
2023-05-09T01:34:08.793Z,93941.31
2023-05-09T01:36:35.617Z,93941.81
2023-05-09T01:39:02.862Z,93942.78
2023-05-09T01:41:31.913Z,93944.91
2023-05-09T01:44:01.030Z,93943.94
2023-05-09T01:46:29.551Z,93937.00
2023-05-09T01:48:57.855Z,93940.22
2023-05-09T01:51:24.688Z,93942.69
2023-05-09T01:53:51.894Z,93942.50
2023-05-09T01:56:19.869Z,93947.34
2023-05-09T01:58:48.458Z,93944.31
2023-05-09T02:01:15.781Z,93943.31
2023-05-09T02:03:45.600Z,93942.69
2023-05-09T02:06:12.996Z,93945.72
2023-05-09T02:08:40.115Z,93941.34
2023-05-09T02:11:07.722Z,93941.84
2023-05-09T02:13:34.885Z,93937.50
2023-05-09T02:16:01.872Z,93939.78
2023-05-09T02:18:29.559Z,93940.06
2023-05-09T02:20:57.982Z,93936.88
2023-05-09T02:23:24.728Z,93933.31
2023-05-09T02:25:54.270Z,93936.56
2023-05-09T02:28:23.646Z,93930.56
2023-05-09T02:30:51.621Z,93934.13
2023-05-09T02:33:18.610Z,93936.66
2023-05-09T02:35:46.598Z,93941.66
2023-05-09T02:38:15.497Z,93936.78
2023-05-09T02:40:44.440Z,93933.72
2023-05-09T02:43:11.646Z,93938.88
2023-05-09T02:45:38.723Z,93932.56
2023-05-09T02:48:08.757Z,93934.16
2023-05-09T02:50:38.472Z,93938.19
2023-05-09T02:53:06.232Z,93930.28
2023-05-09T02:55:34.625Z,93936.41
2023-05-09T02:58:11.988Z,93943.19
2023-05-09T03:00:41.416Z,93944.78
2023-05-09T03:03:09.004Z,93945.56
2023-05-09T03:05:36.045Z,93946.53
2023-05-09T03:08:03.058Z,93947.34
2023-05-09T03:10:30.483Z,93945.75
2023-05-09T03:12:58.744Z,93939.50
2023-05-09T03:15:25.510Z,93943.84
2023-05-09T03:17:52.493Z,93950.13
2023-05-09T03:20:21.701Z,93953.66
2023-05-09T03:22:49.558Z,93960.78
2023-05-09T03:25:17.176Z,93974.13
2023-05-09T03:27:44.659Z,93973.63
2023-05-09T03:30:16.477Z,93976.09
2023-05-09T03:32:45.838Z,93980.75
2023-05-09T03:35:13.225Z,93987.88
2023-05-09T03:37:40.585Z,93986.41
2023-05-09T03:40:09.186Z,93989.31
2023-05-09T03:42:42.643Z,93989.31
2023-05-09T03:45:11.141Z,93985.78
2023-05-09T03:47:39.613Z,93993.19
2023-05-09T03:50:07.134Z,93992.38
2023-05-09T03:52:37.265Z,93991.56
2023-05-09T03:55:06.000Z,93994.00
2023-05-09T03:57:35.886Z,93990.63
2023-05-09T04:00:04.966Z,93995.13
2023-05-09T04:02:42.354Z,93998.53
2023-05-09T04:05:17.463Z,93994.50
2023-05-09T04:07:45.582Z,93997.56
2023-05-09T04:10:12.719Z,94001.59
2023-05-09T04:12:39.785Z,94001.59
2023-05-09T04:15:08.325Z,93998.88
2023-05-09T04:17:36.095Z,93989.22
2023-05-09T04:20:06.673Z,93993.38
2023-05-09T04:22:33.614Z,93990.16
2023-05-09T04:25:01.043Z,93999.81
2023-05-09T04:27:28.344Z,93998.84
2023-05-09T04:29:55.865Z,93994.16
2023-05-09T04:32:23.355Z,93989.31
2023-05-09T04:34:50.944Z,93988.84
2023-05-09T04:37:23.751Z,93995.59
2023-05-09T04:39:50.864Z,93996.22
2023-05-09T04:42:26.258Z,93992.50
2023-05-09T04:44:53.435Z,93997.81
2023-05-09T04:47:22.061Z,93996.00
2023-05-09T04:49:48.974Z,94001.63
2023-05-09T04:52:16.853Z,94002.69
2023-05-09T04:54:45.188Z,94001.22
2023-05-09T04:57:18.059Z,93991.53
2023-05-09T04:59:50.715Z,93998.75
2023-05-09T05:02:18.708Z,93992.94
2023-05-09T05:04:47.352Z,94003.06
2023-05-09T05:07:14.990Z,93996.91
2023-05-09T05:09:45.607Z,93995.56
2023-05-09T05:12:12.489Z,93993.34
2023-05-09T05:14:41.273Z,93996.88
2023-05-09T05:17:10.152Z,93994.41
2023-05-09T05:19:37.076Z,93987.56
2023-05-09T05:22:06.007Z,93999.81
2023-05-09T05:24:33.885Z,93995.53
2023-05-09T05:27:03.234Z,93995.06
2023-05-09T05:29:30.089Z,93999.22
2023-05-09T05:31:57.094Z,94000.31
2023-05-09T05:34:24.175Z,94000.50
2023-05-09T05:36:51.558Z,94006.94
2023-05-09T05:39:18.686Z,94005.84
2023-05-09T05:41:45.618Z,94007.78
2023-05-09T05:44:13.943Z,94010.13
2023-05-09T05:46:41.422Z,94008.34
2023-05-09T05:49:08.417Z,94000.59
2023-05-09T05:51:35.372Z,94002.66
2023-05-09T05:54:03.386Z,94008.19
2023-05-09T05:56:30.829Z,94011.56
2023-05-09T05:58:58.205Z,94011.75
2023-05-09T06:01:26.820Z,94010.59
2023-05-09T06:03:56.078Z,94007.81
2023-05-09T06:06:26.691Z,94005.47
2023-05-09T06:08:55.485Z,94004.91
2023-05-09T06:11:23.507Z,94007.16
2023-05-09T06:13:50.400Z,94008.13
2023-05-09T06:16:19.855Z,94006.25
2023-05-09T06:18:53.334Z,94009.84
2023-05-09T06:21:21.979Z,94003.09
2023-05-09T06:24:05.095Z,94008.56
2023-05-09T06:26:35.544Z,94009.13
2023-05-09T06:29:02.392Z,94012.16
2023-05-09T06:31:29.888Z,94007.25
2023-05-09T06:33:58.292Z,94007.63
2023-05-09T06:36:24.946Z,94005.91
2023-05-09T06:38:51.928Z,94002.16
2023-05-09T06:41:18.811Z,94005.28
2023-05-09T06:43:45.797Z,94010.63
2023-05-09T06:46:12.700Z,94011.69
2023-05-09T06:48:39.720Z,94011.13
2023-05-09T06:51:08.371Z,94008.41
2023-05-09T06:53:35.261Z,94003.69
2023-05-09T06:56:02.177Z,94006.09
2023-05-09T06:58:29.262Z,94006.41
2023-05-09T07:00:56.236Z,94001.53
2023-05-09T07:03:23.934Z,94003.31
2023-05-09T07:05:52.461Z,94002.72
2023-05-09T07:08:20.732Z,93999.75
2023-05-09T07:10:47.467Z,93997.97
2023-05-09T07:13:14.403Z,93992.69
2023-05-09T07:15:42.998Z,94000.66
2023-05-09T07:18:10.487Z,94000.16
2023-05-09T07:20:37.433Z,94005.16
2023-05-09T07:23:04.407Z,94012.16
2023-05-09T07:25:32.738Z,94011.88
2023-05-09T07:28:00.196Z,94007.28
2023-05-09T07:30:27.316Z,94003.53
2023-05-09T07:32:54.219Z,94004.28
2023-05-09T07:35:21.572Z,94005.69
2023-05-09T07:37:48.510Z,94007.25
2023-05-09T07:40:15.920Z,94007.75
2023-05-09T07:42:50.082Z,94014.25
2023-05-09T07:45:18.822Z,94013.03
2023-05-09T07:47:47.001Z,94018.06
2023-05-09T07:50:13.951Z,94012.75
2023-05-09T07:52:40.933Z,94009.00
2023-05-09T07:55:08.543Z,94011.19
2023-05-09T07:57:35.997Z,94015.00
2023-05-09T08:00:06.462Z,94010.28
2023-05-09T08:02:40.625Z,93998.88
2023-05-09T08:05:11.501Z,93997.53
2023-05-09T08:07:39.338Z,94000.72
2023-05-09T08:10:07.552Z,93999.75
2023-05-09T08:12:34.224Z,93998.13
2023-05-09T08:15:01.220Z,93998.84
2023-05-09T08:17:29.601Z,94000.16
2023-05-09T08:19:56.615Z,94012.25
2023-05-09T08:22:24.720Z,93995.94
2023-05-09T08:24:51.683Z,94001.94
2023-05-09T08:27:18.582Z,93999.25
2023-05-09T08:29:45.507Z,94008.44
2023-05-09T08:32:12.659Z,94004.88
2023-05-09T08:34:41.071Z,94001.22
2023-05-09T08:37:08.063Z,94005.25
2023-05-09T08:39:35.355Z,94002.41
2023-05-09T08:42:02.960Z,94007.13
2023-05-09T08:44:31.349Z,94008.63
2023-05-09T08:47:00.727Z,94005.19
2023-05-09T08:49:28.192Z,93998.94
2023-05-09T08:51:57.046Z,94001.69
2023-05-09T08:54:24.725Z,94007.97
2023-05-09T08:56:51.807Z,94011.63
2023-05-09T08:59:19.505Z,94004.59
2023-05-09T09:01:46.799Z,94002.13
2023-05-09T09:04:13.822Z,94003.81
2023-05-09T09:06:41.059Z,94006.16
2023-05-09T09:09:09.567Z,94012.44
2023-05-09T09:11:37.739Z,93995.47
2023-05-09T09:14:07.461Z,94003.53
2023-05-09T09:16:36.282Z,93999.56
2023-05-09T09:19:05.634Z,94002.28
2023-05-09T09:21:33.013Z,94007.28
2023-05-09T09:24:00.500Z,94001.97
2023-05-09T09:26:31.748Z,94007.84
2023-05-09T09:28:58.726Z,94004.50
2023-05-09T09:31:28.536Z,94010.31
2023-05-09T09:33:59.504Z,94006.91
2023-05-09T09:36:27.788Z,94000.28
2023-05-09T09:38:57.838Z,94010.31
2023-05-09T09:41:32.153Z,94012.44
2023-05-09T09:43:59.170Z,94008.69
2023-05-09T09:46:26.305Z,94009.66
2023-05-09T09:48:56.784Z,94010.19
2023-05-09T09:51:27.679Z,94010.03
2023-05-09T09:53:54.584Z,94013.44
2023-05-09T09:56:22.285Z,94010.41
2023-05-09T09:58:50.596Z,94018.97
2023-05-09T10:01:17.318Z,94012.06
2023-05-09T10:03:45.927Z,94015.94
2023-05-09T10:06:13.922Z,94006.03
2023-05-09T10:08:41.177Z,94010.81
2023-05-09T10:11:08.857Z,94001.09
2023-05-09T10:13:36.611Z,94002.22
2023-05-09T10:16:06.217Z,94000.50
2023-05-09T10:18:33.932Z,94002.50
2023-05-09T10:21:02.786Z,94005.50
2023-05-09T10:23:31.423Z,94000.59
2023-05-09T10:26:06.745Z,94008.75
2023-05-09T10:28:35.906Z,94010.00
2023-05-09T10:31:12.891Z,93997.50
2023-05-09T10:33:43.608Z,93993.72
2023-05-09T10:36:10.917Z,93997.88
2023-05-09T10:38:37.861Z,93995.53
2023-05-09T10:41:05.576Z,94001.13
2023-05-09T10:43:36.125Z,94004.72
2023-05-09T10:46:03.959Z,93999.81
2023-05-09T10:48:51.184Z,94001.88
2023-05-09T10:51:18.345Z,94000.31
2023-05-09T10:53:46.640Z,94010.44
2023-05-09T10:56:24.123Z,94003.94
2023-05-09T10:58:51.004Z,94004.84
2023-05-09T11:01:30.586Z,93999.78
2023-05-09T11:04:00.253Z,93997.88
2023-05-09T11:06:46.250Z,93994.31
2023-05-09T11:09:34.656Z,94006.50
2023-05-09T11:12:09.193Z,94005.16
2023-05-09T11:14:42.385Z,93999.63
2023-05-09T11:17:11.091Z,93999.81
2023-05-09T11:20:01.912Z,93997.19
2023-05-09T11:22:30.840Z,93989.19
2023-05-09T11:25:04.612Z,93995.38
2023-05-09T11:27:42.481Z,93995.00
2023-05-09T11:30:11.154Z,94000.00
2023-05-09T11:32:44.056Z,93997.44
2023-05-09T11:35:17.899Z,93994.78
2023-05-09T11:37:49.794Z,93999.94
2023-05-09T11:40:17.657Z,93994.66
2023-05-09T11:42:45.672Z,93998.16
2023-05-09T11:45:15.750Z,94002.44
2023-05-09T11:47:43.097Z,93995.94
2023-05-09T11:50:13.372Z,93996.47
2023-05-09T11:52:40.721Z,93997.75
2023-05-09T11:55:10.927Z,94000.09
2023-05-09T11:57:40.881Z,93996.25
2023-05-09T12:00:10.427Z,93996.50
2023-05-09T12:02:37.860Z,93991.31
2023-05-09T12:05:09.458Z,93993.66
2023-05-09T12:07:39.514Z,93990.81
2023-05-09T12:10:08.693Z,93991.13
2023-05-09T12:12:36.356Z,93995.97
2023-05-09T12:15:04.768Z,93997.22
2023-05-09T12:17:32.034Z,93988.63
2023-05-09T12:20:00.352Z,93999.97
2023-05-09T12:22:27.643Z,94001.00
2023-05-09T12:24:56.147Z,93992.88
2023-05-09T12:27:23.307Z,93999.38
2023-05-09T12:29:50.906Z,93995.16
2023-05-09T12:32:18.501Z,93997.38
2023-05-09T12:34:47.743Z,93993.81
2023-05-09T12:37:16.807Z,93993.84
2023-05-09T12:39:44.675Z,93989.34
2023-05-09T12:42:15.794Z,93990.97
2023-05-09T12:44:49.193Z,93987.81
2023-05-09T12:47:16.325Z,93993.97
2023-05-09T12:49:43.298Z,93995.78
2023-05-09T12:52:18.179Z,93988.53
2023-05-09T12:54:46.341Z,93984.19
2023-05-09T12:57:22.912Z,93985.66
2023-05-09T12:59:50.150Z,93981.13
2023-05-09T13:02:17.787Z,93976.97
2023-05-09T13:04:44.864Z,93977.28
2023-05-09T13:07:11.827Z,93967.78
2023-05-09T13:09:54.471Z,93958.75
2023-05-09T13:12:23.212Z,93959.22
2023-05-09T13:14:50.240Z,93960.03
2023-05-09T13:17:17.170Z,93962.25
2023-05-09T13:19:44.045Z,93963.38
2023-05-09T13:22:12.354Z,93963.81
2023-05-09T13:24:39.516Z,93963.00
2023-05-09T13:27:06.474Z,93965.91
2023-05-09T13:29:34.761Z,93960.63
2023-05-09T13:32:01.746Z,93965.28
2023-05-09T13:34:28.790Z,93965.28
2023-05-09T13:36:55.710Z,93960.81
2023-05-09T13:39:22.720Z,93954.19
2023-05-09T13:41:51.320Z,93954.69
2023-05-09T13:44:18.361Z,93950.34
2023-05-09T13:46:46.936Z,93961.44
2023-05-09T13:49:13.930Z,93952.06
2023-05-09T13:51:41.112Z,93946.72
2023-05-09T13:54:27.004Z,93945.31
2023-05-09T13:56:53.951Z,93947.66
2023-05-09T13:59:20.878Z,93948.59
2023-05-09T14:01:49.208Z,93943.91
2023-05-09T14:04:16.334Z,93955.75
2023-05-09T14:06:48.182Z,93955.47
2023-05-09T14:09:15.744Z,93953.50
2023-05-09T14:11:42.848Z,93953.19
2023-05-09T14:14:09.837Z,93944.34
2023-05-09T14:16:36.781Z,93953.53
2023-05-09T14:19:05.107Z,93960.50
2023-05-09T14:21:32.042Z,93957.97
2023-05-09T14:23:59.011Z,93956.81
2023-05-09T14:26:26.746Z,93962.63
2023-05-09T14:28:54.132Z,93963.72
2023-05-09T14:31:21.172Z,93953.94
2023-05-09T14:33:48.129Z,93956.34
2023-05-09T14:36:16.761Z,93953.44
2023-05-09T14:38:44.306Z,93957.31
2023-05-09T14:41:11.388Z,93956.19
2023-05-09T14:43:38.304Z,93956.66
2023-05-09T14:46:05.599Z,93961.19
2023-05-09T14:48:32.845Z,93957.81
2023-05-09T14:51:00.266Z,93952.16
2023-05-09T14:53:28.754Z,93957.66
2023-05-09T14:55:56.112Z,93951.50
2023-05-09T14:58:23.646Z,93953.44
2023-05-09T15:00:50.812Z,93949.09
2023-05-09T15:03:17.972Z,93954.56
2023-05-09T15:05:44.972Z,93953.59
2023-05-09T15:08:11.936Z,93945.72
2023-05-09T15:10:40.376Z,93953.59
2023-05-09T15:13:07.723Z,93947.00
2023-05-09T15:15:34.710Z,93950.53
2023-05-09T15:18:02.621Z,93947.97
2023-05-09T15:20:29.612Z,93949.41
2023-05-09T15:22:56.619Z,93954.72
2023-05-09T15:25:23.701Z,93954.06
2023-05-09T15:27:51.942Z,93947.31
2023-05-09T15:30:18.985Z,93945.88
2023-05-09T15:32:46.052Z,93943.78
2023-05-09T15:35:13.733Z,93945.22
2023-05-09T15:37:40.629Z,93950.53
2023-05-09T15:40:09.288Z,93939.44
2023-05-09T15:42:36.574Z,93948.47
2023-05-09T15:45:05.521Z,93956.81
2023-05-09T15:47:32.715Z,93951.84
2023-05-09T15:49:59.688Z,93952.94
2023-05-09T15:52:27.837Z,93948.47
2023-05-09T15:54:55.007Z,93954.38
2023-05-09T15:57:22.065Z,93952.31
2023-05-09T15:59:48.983Z,93953.75
2023-05-09T16:02:17.400Z,93959.38
2023-05-09T16:04:44.426Z,93950.84
2023-05-09T16:07:11.636Z,93955.84
2023-05-09T16:09:38.660Z,93956.81
2023-05-09T16:12:05.780Z,93953.09
2023-05-09T16:14:32.775Z,93953.75
2023-05-09T16:16:59.731Z,93956.66
2023-05-09T16:19:27.998Z,93954.56
2023-05-09T16:21:55.003Z,93954.88
2023-05-09T16:24:21.990Z,93956.13
2023-05-09T16:26:48.884Z,93960.34
2023-05-09T16:29:15.813Z,93961.13
2023-05-09T16:31:44.955Z,93966.13
2023-05-09T16:34:12.093Z,93967.72
2023-05-09T16:36:40.446Z,93976.25
2023-05-09T16:39:07.580Z,93970.25
2023-05-09T16:41:34.875Z,93975.38
2023-05-09T16:44:01.740Z,93972.47
2023-05-09T16:46:28.678Z,93983.25
2023-05-09T16:48:55.857Z,93984.03
2023-05-09T16:51:22.825Z,93985.47
2023-05-09T16:53:51.237Z,93981.94
2023-05-09T16:56:18.072Z,93984.31
2023-05-09T16:58:44.992Z,93978.88
2023-05-09T17:01:12.064Z,93984.03
2023-05-09T17:03:38.982Z,93984.97
2023-05-09T17:06:06.530Z,93992.50
2023-05-09T17:08:33.433Z,93986.88
2023-05-09T17:11:01.701Z,93984.75
2023-05-09T17:13:28.658Z,93987.00
2023-05-09T17:15:55.913Z,93982.94
2023-05-09T17:18:35.896Z,93981.97
2023-05-09T17:21:04.551Z,93985.00
2023-05-09T17:23:31.938Z,93993.63
2023-05-09T17:25:58.845Z,93995.75
2023-05-09T17:28:27.204Z,93991.88
2023-05-09T17:30:54.143Z,93991.88
2023-05-09T17:33:21.341Z,93994.59
2023-05-09T17:35:49.655Z,93985.13
2023-05-09T17:38:16.792Z,93995.84
2023-05-09T17:40:44.272Z,93988.16
2023-05-09T17:43:11.172Z,94000.47
2023-05-09T17:45:39.627Z,93986.66
2023-05-09T17:48:07.244Z,93993.75
2023-05-09T17:50:34.466Z,93998.72
2023-05-09T17:53:01.488Z,93999.34
2023-05-09T17:55:28.901Z,94003.66
2023-05-09T17:57:55.756Z,94001.69
2023-05-09T18:00:22.714Z,94001.84
2023-05-09T18:02:51.630Z,94001.41
2023-05-09T18:05:18.753Z,94004.28
2023-05-09T18:07:45.683Z,94010.66
2023-05-09T18:10:12.986Z,94006.59
2023-05-09T18:12:40.231Z,94014.00
2023-05-09T18:15:08.435Z,94015.53
2023-05-09T18:17:35.483Z,94017.16
2023-05-09T18:20:04.834Z,94018.91
2023-05-09T18:22:31.950Z,94014.13
2023-05-09T18:24:59.141Z,94014.94
2023-05-09T18:27:26.116Z,94017.66
2023-05-09T18:29:52.982Z,94020.75
2023-05-09T18:32:20.732Z,94025.25
2023-05-09T18:34:48.587Z,94019.19
2023-05-09T18:37:17.668Z,94024.41
2023-05-09T18:39:44.917Z,94021.66
2023-05-09T18:42:12.933Z,94019.53
2023-05-09T18:44:41.577Z,94023.81
2023-05-09T18:47:08.577Z,94023.44
2023-05-09T18:49:35.590Z,94023.22
2023-05-09T18:52:02.662Z,94015.34
2023-05-09T18:54:31.068Z,94021.56
2023-05-09T18:56:58.117Z,94023.63
2023-05-09T18:59:25.047Z,94022.88
2023-05-09T19:01:52.072Z,94018.56
2023-05-09T19:04:19.618Z,94024.78
2023-05-09T19:06:46.930Z,94021.56
2023-05-09T19:09:13.955Z,94022.38
2023-05-09T19:11:42.340Z,94020.75
2023-05-09T19:14:09.323Z,94025.91
2023-05-09T19:16:36.314Z,94028.31
2023-05-09T19:19:03.310Z,94027.53
2023-05-09T19:21:30.346Z,94024.66
2023-05-09T19:23:57.270Z,94025.31
2023-05-09T19:26:24.193Z,94036.03
2023-05-09T19:28:52.558Z,94025.22
2023-05-09T19:31:20.562Z,94034.84
2023-05-09T19:33:50.133Z,94030.81
2023-05-09T19:36:18.381Z,94033.53
2023-05-09T19:38:45.555Z,94036.69
2023-05-09T19:41:13.959Z,94034.38
2023-05-09T19:43:41.076Z,94035.78
2023-05-09T19:46:09.482Z,94030.00
2023-05-09T19:48:36.474Z,94036.44
2023-05-09T19:51:04.124Z,94035.94
2023-05-09T19:53:31.033Z,94027.94
2023-05-09T19:55:57.992Z,94035.00
2023-05-09T19:58:24.838Z,94034.81
2023-05-09T20:00:51.965Z,94026.03
2023-05-09T20:03:20.504Z,94038.81
2023-05-09T20:05:47.504Z,94032.63
2023-05-09T20:08:14.497Z,94031.28
2023-05-09T20:10:41.363Z,94026.81
2023-05-09T20:13:08.543Z,94033.28
2023-05-09T20:15:35.496Z,94026.59
2023-05-09T20:18:03.725Z,94022.13
2023-05-09T20:20:32.283Z,94026.50
2023-05-09T20:22:59.155Z,94032.31
2023-05-09T20:25:26.112Z,94027.03
2023-05-09T20:27:53.018Z,94024.97
2023-05-09T20:30:20.058Z,94020.28
2023-05-09T20:32:47.044Z,94022.72
2023-05-09T20:35:13.997Z,94016.72
2023-05-09T20:37:42.282Z,94017.22
2023-05-09T20:40:10.323Z,94017.00
2023-05-09T20:42:37.923Z,94013.63
2023-05-09T20:45:05.470Z,94017.53
2023-05-09T20:47:32.647Z,94020.28
2023-05-09T20:49:59.687Z,94016.78
2023-05-09T20:52:26.760Z,94014.72
2023-05-09T20:54:55.077Z,94002.78
2023-05-09T20:57:22.095Z,94000.38
2023-05-09T20:59:48.997Z,94000.66
2023-05-09T21:02:15.936Z,93999.34
2023-05-09T21:04:42.985Z,93997.84
2023-05-09T21:07:10.061Z,94002.41
2023-05-09T21:09:37.109Z,93996.91
2023-05-09T21:12:05.960Z,93997.72
2023-05-09T21:14:32.919Z,93997.13
2023-05-09T21:17:00.059Z,94002.94
2023-05-09T21:19:27.801Z,93998.81
2023-05-09T21:21:54.793Z,93998.31
2023-05-09T21:24:21.680Z,93992.53
2023-05-09T21:26:48.638Z,94001.53
2023-05-09T21:29:16.966Z,93998.53
2023-05-09T21:31:44.034Z,93993.25
2023-05-09T21:34:10.995Z,93996.25
2023-05-09T21:36:41.008Z,93998.59
2023-05-09T21:39:11.757Z,93993.25
2023-05-09T21:41:40.042Z,93991.19
2023-05-09T21:44:11.349Z,93989.31
2023-05-09T21:46:40.025Z,93996.47
2023-05-09T21:49:07.094Z,93990.97
2023-05-09T21:51:34.268Z,93983.25
2023-05-09T21:54:01.360Z,93978.56
2023-05-09T21:56:28.420Z,93985.19
2023-05-09T21:58:55.503Z,93981.69
2023-05-09T22:01:22.543Z,93979.13
2023-05-09T22:03:51.613Z,93980.44
2023-05-09T22:06:18.673Z,93975.81
2023-05-09T22:08:45.814Z,93972.56
2023-05-09T22:11:14.235Z,93972.72
2023-05-09T22:13:42.538Z,93965.53
2023-05-09T22:16:09.447Z,93966.22
2023-05-09T22:18:36.419Z,93961.38
2023-05-09T22:21:05.556Z,93968.13
2023-05-09T22:23:32.422Z,93967.16
2023-05-09T22:25:59.381Z,93959.75
2023-05-09T22:28:27.464Z,93957.72
2023-05-09T22:30:54.353Z,93960.13
2023-05-09T22:33:21.381Z,93963.66
2023-05-09T22:35:48.257Z,93958.28
2023-05-09T22:38:16.568Z,93961.16
2023-05-09T22:40:43.759Z,93958.44
2023-05-09T22:43:11.212Z,93959.38
2023-05-09T22:45:38.296Z,93944.44
2023-05-09T22:48:06.052Z,93955.66
2023-05-09T22:50:32.977Z,93946.34
2023-05-09T22:53:00.256Z,93946.25
2023-05-09T22:55:28.800Z,93952.19
2023-05-09T22:57:55.826Z,93940.97
2023-05-09T23:00:22.845Z,93948.81
2023-05-09T23:02:49.954Z,93943.03
2023-05-09T23:05:16.987Z,93943.53
2023-05-09T23:07:44.435Z,93940.53
2023-05-09T23:10:11.503Z,93938.16
2023-05-09T23:12:39.828Z,93943.97
2023-05-09T23:15:07.941Z,93939.22
2023-05-09T23:17:34.956Z,93936.97
2023-05-09T23:20:01.964Z,93940.91
2023-05-09T23:22:29.091Z,93940.66
2023-05-09T23:24:56.091Z,93945.16
2023-05-09T23:27:23.055Z,93941.47
2023-05-09T23:29:51.443Z,93941.03
2023-05-09T23:32:18.346Z,93934.03
2023-05-09T23:34:45.478Z,93932.91
2023-05-09T23:37:12.483Z,93938.22
2023-05-09T23:39:39.447Z,93936.59
2023-05-09T23:42:06.398Z,93934.53
2023-05-09T23:44:33.445Z,93937.16
2023-05-09T23:47:02.321Z,93934.22
2023-05-09T23:49:29.225Z,93932.59
2023-05-09T23:51:56.099Z,93928.41
2023-05-09T23:54:24.631Z,93931.38
2023-05-09T23:56:51.671Z,93922.78
2023-05-09T23:59:18.656Z,93925.09
